createdAt,value
2016-11-07T00:01:06.947Z,1007.69
2016-11-07T00:02:19.004Z,1007.68
2016-11-07T00:03:30.932Z,1007.7
2016-11-07T00:04:42.508Z,1007.68
2016-11-07T00:05:55.138Z,1007.7
2016-11-07T00:07:07.831Z,1007.66
2016-11-07T00:08:20.528Z,1007.66
2016-11-07T00:09:32.415Z,1007.65
2016-11-07T00:10:44.383Z,1007.65
2016-11-07T00:11:56.043Z,1007.62
2016-11-07T00:13:08.257Z,1007.61
2016-11-07T00:14:20.991Z,1007.58
2016-11-07T00:15:33.088Z,1007.55
2016-11-07T00:16:44.054Z,1007.56
2016-11-07T00:17:54.440Z,1007.59
2016-11-07T00:19:06.010Z,1007.55
2016-11-07T00:20:17.875Z,1007.57
2016-11-07T00:21:29.567Z,1007.56
2016-11-07T00:22:41.012Z,1007.6
2016-11-07T00:23:52.701Z,1007.56
2016-11-07T00:25:05.836Z,1007.54
2016-11-07T00:26:16.227Z,1007.53
2016-11-07T00:27:28.173Z,1007.54
2016-11-07T00:28:39.821Z,1007.49
2016-11-07T00:29:51.347Z,1007.5
2016-11-07T00:31:03.374Z,1007.53
2016-11-07T00:32:14.592Z,1007.51
2016-11-07T00:33:26.728Z,1007.53
2016-11-07T00:34:39.260Z,1007.5
2016-11-07T00:35:50.269Z,1007.51
2016-11-07T00:37:02.254Z,1007.47
2016-11-07T00:38:13.985Z,1007.48
2016-11-07T00:39:26.343Z,1007.45
2016-11-07T00:40:38.430Z,1007.52
2016-11-07T00:41:50.045Z,1007.47
2016-11-07T00:43:02.263Z,1007.45
2016-11-07T00:44:13.830Z,1007.43
2016-11-07T00:45:25.609Z,1007.42
2016-11-07T00:46:37.203Z,1007.42
2016-11-07T00:47:48.746Z,1007.42
2016-11-07T00:49:00.373Z,1007.4
2016-11-07T00:50:13.155Z,1007.44
2016-11-07T00:51:25.301Z,1007.43
2016-11-07T00:52:37.417Z,1007.43
2016-11-07T00:53:49.687Z,1007.46
2016-11-07T00:55:02.251Z,1007.44
2016-11-07T00:56:14.919Z,1007.43
2016-11-07T00:57:26.964Z,1007.49
2016-11-07T00:58:37.615Z,1007.5
2016-11-07T00:59:48.934Z,1007.45
2016-11-07T01:01:00.881Z,1007.4
2016-11-07T01:02:12.281Z,1007.43
2016-11-07T01:03:23.201Z,1007.4
2016-11-07T01:04:33.934Z,1007.42
2016-11-07T01:05:46.558Z,1007.43
2016-11-07T01:06:58.475Z,1007.38
2016-11-07T01:08:10.035Z,1007.4
2016-11-07T01:09:21.343Z,1007.35
2016-11-07T01:10:33.258Z,1007.37
2016-11-07T01:11:44.681Z,1007.37
2016-11-07T01:12:57.379Z,1007.38
2016-11-07T01:14:09.507Z,1007.37
2016-11-07T01:15:20.701Z,1007.38
2016-11-07T01:16:31.984Z,1007.38
2016-11-07T01:17:44.006Z,1007.41
2016-11-07T01:18:55.536Z,1007.44
2016-11-07T01:20:08.193Z,1007.44
2016-11-07T01:21:18.869Z,1007.44
2016-11-07T01:22:31.440Z,1007.49
2016-11-07T01:23:43.239Z,1007.47
2016-11-07T01:24:55.939Z,1007.46
2016-11-07T01:26:08.086Z,1007.41
2016-11-07T01:27:20.179Z,1007.42
2016-11-07T01:28:32.254Z,1007.43
2016-11-07T01:29:44.602Z,1007.43
2016-11-07T01:30:56.125Z,1007.45
2016-11-07T01:32:08.770Z,1007.48
2016-11-07T01:33:20.776Z,1007.47
2016-11-07T01:34:32.087Z,1007.47
2016-11-07T01:35:43.857Z,1007.5
2016-11-07T01:36:55.441Z,1007.52
2016-11-07T01:38:06.421Z,1007.52
2016-11-07T01:39:18.573Z,1007.52
2016-11-07T01:40:29.873Z,1007.5
2016-11-07T01:41:41.755Z,1007.5
2016-11-07T01:42:52.325Z,1007.53
2016-11-07T01:44:03.320Z,1007.55
2016-11-07T01:45:14.212Z,1007.51
2016-11-07T01:46:26.218Z,1007.52
2016-11-07T01:47:38.181Z,1007.5
2016-11-07T01:48:50.958Z,1007.51
2016-11-07T01:50:03.139Z,1007.53
2016-11-07T01:51:14.620Z,1007.5
2016-11-07T01:52:26.042Z,1007.5
2016-11-07T01:53:37.627Z,1007.49
2016-11-07T01:54:48.501Z,1007.5
2016-11-07T01:56:00.994Z,1007.52
2016-11-07T01:57:12.684Z,1007.54
2016-11-07T01:58:24.140Z,1007.48
2016-11-07T01:59:35.881Z,1007.46
2016-11-07T02:00:48.502Z,1007.51
2016-11-07T02:02:01.009Z,1007.52
2016-11-07T02:03:13.484Z,1007.52
2016-11-07T02:04:26.087Z,1007.59
2016-11-07T02:05:36.910Z,1007.53
2016-11-07T02:06:49.173Z,1007.54
2016-11-07T02:08:00.896Z,1007.5
2016-11-07T02:09:13.630Z,1007.56
2016-11-07T02:10:26.045Z,1007.52
2016-11-07T02:11:37.755Z,1007.48
2016-11-07T02:12:49.824Z,1007.45
2016-11-07T02:14:01.582Z,1007.5
2016-11-07T02:15:12.728Z,1007.44
2016-11-07T02:16:25.404Z,1007.47
2016-11-07T02:17:37.341Z,1007.46
2016-11-07T02:18:49.143Z,1007.48
2016-11-07T02:20:01.201Z,1007.44
2016-11-07T02:21:12.982Z,1007.42
2016-11-07T02:22:24.604Z,1007.4
2016-11-07T02:23:36.343Z,1007.42
2016-11-07T02:24:47.795Z,1007.34
2016-11-07T02:25:58.233Z,1007.37
2016-11-07T02:27:09.870Z,1007.38
2016-11-07T02:28:21.763Z,1007.38
2016-11-07T02:29:34.267Z,1007.36
2016-11-07T02:30:46.230Z,1007.36
2016-11-07T02:31:58.149Z,1007.38
2016-11-07T02:33:10.947Z,1007.38
2016-11-07T02:34:22.407Z,1007.39
2016-11-07T02:35:35.171Z,1007.41
2016-11-07T02:36:46.932Z,1007.4
2016-11-07T02:37:58.443Z,1007.42
2016-11-07T02:39:09.837Z,1007.37
2016-11-07T02:40:22.508Z,1007.35
2016-11-07T02:41:34.795Z,1007.36
2016-11-07T02:42:47.010Z,1007.36
2016-11-07T02:43:57.725Z,1007.38
2016-11-07T02:45:09.986Z,1007.3
2016-11-07T02:46:22.722Z,1007.35
2016-11-07T02:47:35.967Z,1007.29
2016-11-07T02:48:48.604Z,1007.27
2016-11-07T02:49:59.686Z,1007.27
2016-11-07T02:51:12.855Z,1007.31
2016-11-07T02:52:26.079Z,1007.29
2016-11-07T02:53:37.722Z,1007.28
2016-11-07T02:54:50.064Z,1007.25
2016-11-07T02:56:01.688Z,1007.22
2016-11-07T02:57:13.553Z,1007.24
2016-11-07T02:58:25.885Z,1007.24
2016-11-07T02:59:37.282Z,1007.21
2016-11-07T03:00:49.989Z,1007.2
2016-11-07T03:02:00.694Z,1007.17
2016-11-07T03:03:13.738Z,1007.15
2016-11-07T03:04:25.541Z,1007.16
2016-11-07T03:05:37.971Z,1007.19
2016-11-07T03:06:48.392Z,1007.13
2016-11-07T03:08:01.001Z,1007.14
2016-11-07T03:09:12.393Z,1007.11
2016-11-07T03:10:23.989Z,1007.12
2016-11-07T03:11:36.153Z,1007.09
2016-11-07T03:12:46.553Z,1007.07
2016-11-07T03:13:57.646Z,1007.07
2016-11-07T03:15:08.867Z,1007.02
2016-11-07T03:16:20.079Z,1007.03
2016-11-07T03:17:31.834Z,1007.03
2016-11-07T03:18:42.983Z,1007.03
2016-11-07T03:19:54.805Z,1007
2016-11-07T03:21:06.843Z,1007.01
2016-11-07T03:22:18.586Z,1007.01
2016-11-07T03:23:31.153Z,1007.02
2016-11-07T03:24:43.774Z,1007
2016-11-07T03:25:55.034Z,1006.97
2016-11-07T03:27:07.160Z,1006.96
2016-11-07T03:28:17.980Z,1006.97
2016-11-07T03:29:30.526Z,1007
2016-11-07T03:30:43.145Z,1007.03
2016-11-07T03:31:55.926Z,1007.03
2016-11-07T03:33:08.602Z,1007.04
2016-11-07T03:34:21.702Z,1007.1
2016-11-07T03:35:34.547Z,1007.08
2016-11-07T03:36:46.195Z,1007.11
2016-11-07T03:37:57.477Z,1007.1
2016-11-07T03:39:09.583Z,1007.06
2016-11-07T03:40:21.311Z,1007.05
2016-11-07T03:41:33.083Z,1007.04
2016-11-07T03:42:45.649Z,1007.01
2016-11-07T03:43:57.975Z,1007
2016-11-07T03:45:10.104Z,1006.92
2016-11-07T03:46:21.914Z,1006.95
2016-11-07T03:47:33.604Z,1006.92
2016-11-07T03:48:44.593Z,1006.91
2016-11-07T03:49:55.408Z,1006.9
2016-11-07T03:51:07.327Z,1006.89
2016-11-07T03:52:18.277Z,1006.9
2016-11-07T03:53:28.822Z,1006.9
2016-11-07T03:54:39.411Z,1006.93
2016-11-07T03:55:51.658Z,1006.94
2016-11-07T03:57:04.306Z,1006.92
2016-11-07T03:58:16.545Z,1006.91
2016-11-07T03:59:28.139Z,1006.9
2016-11-07T04:00:40.814Z,1006.92
2016-11-07T04:01:54.126Z,1006.93
2016-11-07T04:03:05.634Z,1006.96
2016-11-07T04:04:17.903Z,1006.95
2016-11-07T04:05:28.539Z,1006.97
2016-11-07T04:06:41.241Z,1006.95
2016-11-07T04:07:53.926Z,1006.96
2016-11-07T04:09:05.790Z,1006.98
2016-11-07T04:10:16.933Z,1006.98
2016-11-07T04:11:28.960Z,1006.99
2016-11-07T04:12:41.727Z,1006.99
2016-11-07T04:13:53.853Z,1006.98
2016-11-07T04:15:06.533Z,1006.97
2016-11-07T04:16:18.981Z,1007.02
2016-11-07T04:17:31.169Z,1007.08
2016-11-07T04:18:42.769Z,1007.09
2016-11-07T04:19:53.686Z,1007.06
2016-11-07T04:21:05.844Z,1007.09
2016-11-07T04:22:17.486Z,1007.1
2016-11-07T04:23:29.668Z,1007.09
2016-11-07T04:24:42.271Z,1007.11
2016-11-07T04:25:53.826Z,1007.15
2016-11-07T04:27:05.074Z,1007.13
2016-11-07T04:28:16.942Z,1007.18
2016-11-07T04:29:28.474Z,1007.16
2016-11-07T04:30:40.674Z,1007.17
2016-11-07T04:31:52.077Z,1007.17
2016-11-07T04:33:04.214Z,1007.16
2016-11-07T04:34:16.292Z,1007.16
2016-11-07T04:35:29.013Z,1007.19
2016-11-07T04:36:41.127Z,1007.15
2016-11-07T04:37:52.787Z,1007.17
2016-11-07T04:39:03.772Z,1007.18
2016-11-07T04:40:15.730Z,1007.15
2016-11-07T04:41:28.844Z,1007.16
2016-11-07T04:42:41.551Z,1007.15
2016-11-07T04:43:54.235Z,1007.15
2016-11-07T04:45:06.859Z,1007.16
2016-11-07T04:46:18.593Z,1007.15
2016-11-07T04:47:30.128Z,1007.15
2016-11-07T04:48:41.548Z,1007.14
2016-11-07T04:49:54.098Z,1007.15
2016-11-07T04:51:05.330Z,1007.11
2016-11-07T04:52:17.527Z,1007.09
2016-11-07T04:53:28.596Z,1007.11
2016-11-07T04:54:40.726Z,1007.07
2016-11-07T04:55:51.715Z,1007.01
2016-11-07T04:57:03.823Z,1007
2016-11-07T04:58:15.486Z,1007.02
2016-11-07T04:59:27.933Z,1007.03
2016-11-07T05:00:38.875Z,1007.01
2016-11-07T05:01:51.077Z,1007
2016-11-07T05:03:01.611Z,1006.99
2016-11-07T05:04:14.133Z,1006.98
2016-11-07T05:05:26.339Z,1007
2016-11-07T05:06:39.405Z,1007
2016-11-07T05:07:50.044Z,1007.01
2016-11-07T05:09:01.408Z,1007.02
2016-11-07T05:10:13.638Z,1007.02
2016-11-07T05:11:24.933Z,1006.99
2016-11-07T05:12:35.898Z,1007.02
2016-11-07T05:13:47.718Z,1007.05
2016-11-07T05:15:00.470Z,1007.06
2016-11-07T05:16:12.247Z,1007.06
2016-11-07T05:17:22.486Z,1007.09
2016-11-07T05:18:35.703Z,1007.07
2016-11-07T05:19:47.672Z,1007.1
2016-11-07T05:21:00.399Z,1007.12
2016-11-07T05:22:13.029Z,1007.1
2016-11-07T05:23:24.835Z,1007.1
2016-11-07T05:24:37.199Z,1007.12
2016-11-07T05:25:48.139Z,1007.08
2016-11-07T05:27:00.103Z,1007.11
2016-11-07T05:28:13.130Z,1007.15
2016-11-07T05:29:25.512Z,1007.14
2016-11-07T05:30:37.787Z,1007.12
2016-11-07T05:31:51.071Z,1007.13
2016-11-07T05:33:03.198Z,1007.12
2016-11-07T05:34:14.963Z,1007.15
2016-11-07T05:35:24.726Z,1007.16
2016-11-07T05:36:37.420Z,1007.14
2016-11-07T05:37:49.074Z,1007.13
2016-11-07T05:38:59.280Z,1007.14
2016-11-07T05:40:12.385Z,1007.14
2016-11-07T05:41:24.536Z,1007.13
2016-11-07T05:42:37.724Z,1007.18
2016-11-07T05:43:49.017Z,1007.2
2016-11-07T05:45:01.142Z,1007.21
2016-11-07T05:46:13.088Z,1007.23
2016-11-07T05:47:25.199Z,1007.24
2016-11-07T05:48:37.423Z,1007.25
2016-11-07T05:49:49.298Z,1007.25
2016-11-07T05:51:01.554Z,1007.27
2016-11-07T05:52:12.053Z,1007.28
2016-11-07T05:53:25.220Z,1007.23
2016-11-07T05:54:37.938Z,1007.27
2016-11-07T05:55:48.963Z,1007.22
2016-11-07T05:57:00.683Z,1007.23
2016-11-07T05:58:13.228Z,1007.23
2016-11-07T05:59:25.184Z,1007.21
2016-11-07T06:00:38.483Z,1007.13
2016-11-07T06:01:49.053Z,1007.16
2016-11-07T06:02:59.942Z,1007.16
2016-11-07T06:04:12.092Z,1007.1
2016-11-07T06:05:23.211Z,1007.11
2016-11-07T06:06:34.611Z,1007.12
2016-11-07T06:07:46.291Z,1007.16
2016-11-07T06:08:59.265Z,1007.13
2016-11-07T06:10:10.942Z,1007.18
2016-11-07T06:11:22.116Z,1007.17
2016-11-07T06:12:33.253Z,1007.15
2016-11-07T06:13:44.936Z,1007.16
2016-11-07T06:14:56.157Z,1007.18
2016-11-07T06:16:09.295Z,1007.17
2016-11-07T06:17:21.389Z,1007.19
2016-11-07T06:18:32.724Z,1007.19
2016-11-07T06:19:44.855Z,1007.17
2016-11-07T06:20:56.426Z,1007.17
2016-11-07T06:22:09.664Z,1007.18
2016-11-07T06:23:22.829Z,1007.17
2016-11-07T06:24:34.117Z,1007.2
2016-11-07T06:25:46.747Z,1007.22
2016-11-07T06:26:58.232Z,1007.19
2016-11-07T06:28:09.471Z,1007.2
2016-11-07T06:29:21.936Z,1007.22
2016-11-07T06:30:34.757Z,1007.24
2016-11-07T06:31:45.504Z,1007.25
2016-11-07T06:32:57.259Z,1007.26
2016-11-07T06:34:09.963Z,1007.23
2016-11-07T06:35:22.154Z,1007.28
2016-11-07T06:36:34.520Z,1007.3
2016-11-07T06:37:46.529Z,1007.37
2016-11-07T06:38:58.431Z,1007.38
2016-11-07T06:40:09.816Z,1007.43
2016-11-07T06:41:21.072Z,1007.43
2016-11-07T06:42:33.739Z,1007.44
2016-11-07T06:43:45.224Z,1007.42
2016-11-07T06:44:57.990Z,1007.45
2016-11-07T06:46:09.924Z,1007.44
2016-11-07T06:47:21.784Z,1007.46
2016-11-07T06:48:33.938Z,1007.45
2016-11-07T06:49:46.638Z,1007.49
2016-11-07T06:50:59.365Z,1007.55
2016-11-07T06:52:11.124Z,1007.54
2016-11-07T06:53:23.276Z,1007.58
2016-11-07T06:54:35.883Z,1007.59
2016-11-07T06:55:47.748Z,1007.55
2016-11-07T06:57:00.109Z,1007.6
2016-11-07T06:58:12.903Z,1007.63
2016-11-07T06:59:26.059Z,1007.64
2016-11-07T07:00:37.343Z,1007.68
2016-11-07T07:01:48.527Z,1007.66
2016-11-07T07:02:59.601Z,1007.69
2016-11-07T07:04:10.668Z,1007.67
2016-11-07T07:05:23.224Z,1007.64
2016-11-07T07:06:35.234Z,1007.66
2016-11-07T07:07:46.649Z,1007.69
2016-11-07T07:08:59.177Z,1007.74
2016-11-07T07:10:10.898Z,1007.71
2016-11-07T07:11:23.025Z,1007.69
2016-11-07T07:12:36.213Z,1007.68
2016-11-07T07:13:47.602Z,1007.65
2016-11-07T07:14:58.747Z,1007.71
2016-11-07T07:16:09.629Z,1007.73
2016-11-07T07:17:21.783Z,1007.77
2016-11-07T07:18:33.217Z,1007.72
2016-11-07T07:19:45.277Z,1007.74
2016-11-07T07:20:56.950Z,1007.71
2016-11-07T07:22:08.495Z,1007.72
2016-11-07T07:23:21.721Z,1007.7
2016-11-07T07:24:34.453Z,1007.7
2016-11-07T07:25:47.174Z,1007.74
2016-11-07T07:26:59.260Z,1007.71
2016-11-07T07:28:10.974Z,1007.74
2016-11-07T07:29:22.323Z,1007.74
2016-11-07T07:30:33.808Z,1007.78
2016-11-07T07:31:46.431Z,1007.79
2016-11-07T07:32:56.959Z,1007.81
2016-11-07T07:34:07.977Z,1007.83
2016-11-07T07:35:21.147Z,1007.81
2016-11-07T07:36:32.871Z,1007.85
2016-11-07T07:37:43.623Z,1007.8
2016-11-07T07:38:56.210Z,1007.85
2016-11-07T07:40:08.320Z,1007.85
2016-11-07T07:41:21.051Z,1007.87
2016-11-07T07:42:33.264Z,1007.84
2016-11-07T07:43:44.471Z,1007.81
2016-11-07T07:44:56.359Z,1007.84
2016-11-07T07:46:07.715Z,1007.87
2016-11-07T07:47:19.614Z,1007.92
2016-11-07T07:48:31.802Z,1007.87
2016-11-07T07:49:43.192Z,1007.93
2016-11-07T07:50:55.877Z,1007.95
2016-11-07T07:52:07.723Z,1007.98
2016-11-07T07:53:20.106Z,1008.01
2016-11-07T07:54:31.584Z,1008.03
2016-11-07T07:55:43.768Z,1008
2016-11-07T07:56:54.527Z,1007.97
2016-11-07T07:58:05.705Z,1008.02
2016-11-07T07:59:17.053Z,1008.03
2016-11-07T08:00:30.056Z,1008.02
2016-11-07T08:01:40.777Z,1008.04
2016-11-07T08:02:53.523Z,1008.02
2016-11-07T08:04:05.052Z,1008.03
2016-11-07T08:05:17.106Z,1008.07
2016-11-07T08:06:29.783Z,1008.04
2016-11-07T08:07:41.348Z,1008.07
2016-11-07T08:08:54.602Z,1008.06
2016-11-07T08:10:06.438Z,1008.09
2016-11-07T08:11:16.948Z,1008.06
2016-11-07T08:12:27.727Z,1008.08
2016-11-07T08:13:39.720Z,1008.09
2016-11-07T08:14:51.665Z,1008.12
2016-11-07T08:16:03.989Z,1008.12
2016-11-07T08:17:16.020Z,1008.2
2016-11-07T08:18:27.545Z,1008.15
2016-11-07T08:19:39.965Z,1008.21
2016-11-07T08:20:51.628Z,1008.16
2016-11-07T08:22:03.708Z,1008.18
2016-11-07T08:23:15.479Z,1008.21
2016-11-07T08:24:27.121Z,1008.23
2016-11-07T08:25:38.332Z,1008.24
2016-11-07T08:26:50.972Z,1008.22
2016-11-07T08:28:02.169Z,1008.23
2016-11-07T08:29:15.026Z,1008.22
2016-11-07T08:30:27.231Z,1008.21
2016-11-07T08:31:39.315Z,1008.22
2016-11-07T08:32:50.656Z,1008.23
2016-11-07T08:34:02.118Z,1008.27
2016-11-07T08:35:14.953Z,1008.25
2016-11-07T08:36:25.480Z,1008.26
2016-11-07T08:37:36.927Z,1008.24
2016-11-07T08:38:48.468Z,1008.26
2016-11-07T08:39:59.444Z,1008.27
2016-11-07T08:41:11.320Z,1008.27
2016-11-07T08:42:23.437Z,1008.27
2016-11-07T08:43:36.153Z,1008.26
2016-11-07T08:44:48.169Z,1008.28
2016-11-07T08:46:00.626Z,1008.26
2016-11-07T08:47:11.859Z,1008.25
2016-11-07T08:48:23.825Z,1008.3
2016-11-07T08:49:36.652Z,1008.28
2016-11-07T08:50:46.841Z,1008.27
2016-11-07T08:51:58.089Z,1008.3
2016-11-07T08:53:08.917Z,1008.32
2016-11-07T08:54:19.873Z,1008.3
2016-11-07T08:55:32.548Z,1008.32
2016-11-07T08:56:43.076Z,1008.3
2016-11-07T08:57:56.148Z,1008.3
2016-11-07T08:59:06.978Z,1008.33
2016-11-07T09:00:18.398Z,1008.32
2016-11-07T09:01:30.318Z,1008.33
2016-11-07T09:02:40.999Z,1008.3
2016-11-07T09:03:52.730Z,1008.3
2016-11-07T09:05:03.508Z,1008.28
2016-11-07T09:06:14.712Z,1008.29
2016-11-07T09:07:26.189Z,1008.3
2016-11-07T09:08:37.482Z,1008.3
2016-11-07T09:09:48.502Z,1008.24
2016-11-07T09:10:59.748Z,1008.28
2016-11-07T09:12:11.157Z,1008.26
2016-11-07T09:13:23.138Z,1008.3
2016-11-07T09:14:35.011Z,1008.28
2016-11-07T09:15:47.289Z,1008.3
2016-11-07T09:16:59.939Z,1008.3
2016-11-07T09:18:11.793Z,1008.34
2016-11-07T09:19:23.951Z,1008.34
2016-11-07T09:20:35.261Z,1008.35
2016-11-07T09:21:48.023Z,1008.33
2016-11-07T09:23:00.319Z,1008.37
2016-11-07T09:24:12.245Z,1008.33
2016-11-07T09:25:24.157Z,1008.32
2016-11-07T09:26:36.855Z,1008.34
2016-11-07T09:27:49.536Z,1008.32
2016-11-07T09:29:00.640Z,1008.32
2016-11-07T09:30:12.593Z,1008.33
2016-11-07T09:31:23.584Z,1008.38
2016-11-07T09:32:35.114Z,1008.38
2016-11-07T09:33:47.015Z,1008.38
2016-11-07T09:34:57.986Z,1008.36
2016-11-07T09:36:09.444Z,1008.4
2016-11-07T09:37:20.190Z,1008.39
2016-11-07T09:38:31.264Z,1008.41
2016-11-07T09:39:42.383Z,1008.43
2016-11-07T09:40:52.437Z,1008.4
2016-11-07T09:42:04.450Z,1008.41
2016-11-07T09:43:16.695Z,1008.45
2016-11-07T09:44:27.909Z,1008.41
2016-11-07T09:45:38.987Z,1008.42
2016-11-07T09:46:50.289Z,1008.46
2016-11-07T09:48:02.395Z,1008.43
2016-11-07T09:49:12.984Z,1008.44
2016-11-07T09:50:25.302Z,1008.42
2016-11-07T09:51:37.347Z,1008.44
2016-11-07T09:52:49.014Z,1008.43
2016-11-07T09:53:59.817Z,1008.44
2016-11-07T09:55:11.393Z,1008.37
2016-11-07T09:56:23.003Z,1008.37
2016-11-07T09:57:34.306Z,1008.39
2016-11-07T09:58:46.058Z,1008.38
2016-11-07T09:59:56.769Z,1008.35
2016-11-07T10:01:07.503Z,1008.35
2016-11-07T10:02:20.300Z,1008.36
2016-11-07T10:03:32.014Z,1008.36
2016-11-07T10:04:43.653Z,1008.31
2016-11-07T10:05:55.832Z,1008.35
2016-11-07T10:07:07.644Z,1008.37
2016-11-07T10:08:20.375Z,1008.38
2016-11-07T10:09:31.766Z,1008.35
2016-11-07T10:10:43.365Z,1008.39
2016-11-07T10:11:55.924Z,1008.38
2016-11-07T10:13:07.903Z,1008.39
2016-11-07T10:14:19.584Z,1008.36
2016-11-07T10:15:31.677Z,1008.37
2016-11-07T10:16:43.447Z,1008.38
2016-11-07T10:17:55.656Z,1008.37
2016-11-07T10:19:08.748Z,1008.38
2016-11-07T10:20:18.858Z,1008.35
2016-11-07T10:21:30.659Z,1008.33
2016-11-07T10:22:42.751Z,1008.3
2016-11-07T10:23:56.109Z,1008.3
2016-11-07T10:25:06.599Z,1008.28
2016-11-07T10:26:18.763Z,1008.26
2016-11-07T10:27:31.790Z,1008.28
2016-11-07T10:28:43.303Z,1008.23
2016-11-07T10:29:55.115Z,1008.23
2016-11-07T10:31:06.528Z,1008.23
2016-11-07T10:32:18.052Z,1008.22
2016-11-07T10:33:30.396Z,1008.21
2016-11-07T10:34:42.217Z,1008.18
2016-11-07T10:35:54.941Z,1008.18
2016-11-07T10:37:06.698Z,1008.16
2016-11-07T10:38:19.480Z,1008.16
2016-11-07T10:39:30.563Z,1008.15
2016-11-07T10:40:42.818Z,1008.2
2016-11-07T10:41:54.372Z,1008.12
2016-11-07T10:43:07.041Z,1008.18
2016-11-07T10:44:17.820Z,1008.13
2016-11-07T10:45:30.074Z,1008.14
2016-11-07T10:46:41.895Z,1008.11
2016-11-07T10:47:53.493Z,1008.12
2016-11-07T10:49:05.846Z,1008.11
2016-11-07T10:50:16.937Z,1008.11
2016-11-07T10:51:29.056Z,1008.08
2016-11-07T10:52:42.118Z,1008.03
2016-11-07T10:53:54.760Z,1008.04
2016-11-07T10:55:06.751Z,1008.01
2016-11-07T10:56:17.803Z,1007.97
2016-11-07T10:57:28.387Z,1007.98
2016-11-07T10:58:41.605Z,1007.97
2016-11-07T10:59:52.038Z,1007.92
2016-11-07T11:01:03.405Z,1007.88
2016-11-07T11:02:14.528Z,1007.89
2016-11-07T11:03:26.895Z,1007.89
2016-11-07T11:04:39.545Z,1007.87
2016-11-07T11:05:50.542Z,1007.9
2016-11-07T11:07:02.136Z,1007.89
2016-11-07T11:08:14.823Z,1007.85
2016-11-07T11:09:26.572Z,1007.84
2016-11-07T11:10:38.665Z,1007.78
2016-11-07T11:11:49.623Z,1007.79
2016-11-07T11:13:00.494Z,1007.75
2016-11-07T11:14:12.387Z,1007.74
2016-11-07T11:15:25.136Z,1007.71
2016-11-07T11:16:35.605Z,1007.73
2016-11-07T11:17:46.978Z,1007.67
2016-11-07T11:18:58.539Z,1007.63
2016-11-07T11:20:09.462Z,1007.62
2016-11-07T11:21:19.938Z,1007.66
2016-11-07T11:22:32.566Z,1007.65
2016-11-07T11:23:43.068Z,1007.6
2016-11-07T11:24:54.975Z,1007.55
2016-11-07T11:26:06.095Z,1007.54
2016-11-07T11:27:16.292Z,1007.52
2016-11-07T11:28:28.355Z,1007.55
2016-11-07T11:29:39.480Z,1007.51
2016-11-07T11:30:51.210Z,1007.47
2016-11-07T11:32:02.572Z,1007.43
2016-11-07T11:33:13.225Z,1007.39
2016-11-07T11:34:25.208Z,1007.38
2016-11-07T11:35:36.263Z,1007.36
2016-11-07T11:36:48.489Z,1007.37
2016-11-07T11:38:01.105Z,1007.34
2016-11-07T11:39:11.790Z,1007.3
2016-11-07T11:40:24.203Z,1007.3
2016-11-07T11:41:36.847Z,1007.3
2016-11-07T11:42:47.308Z,1007.27
2016-11-07T11:43:59.674Z,1007.31
2016-11-07T11:45:12.222Z,1007.26
2016-11-07T11:46:23.477Z,1007.27
2016-11-07T11:47:35.074Z,1007.27
2016-11-07T11:48:46.512Z,1007.27
2016-11-07T11:49:58.598Z,1007.23
2016-11-07T11:51:09.912Z,1007.22
2016-11-07T11:52:21.474Z,1007.13
2016-11-07T11:53:32.871Z,1007.13
2016-11-07T11:54:44.680Z,1007.11
2016-11-07T11:55:56.228Z,1007.11
2016-11-07T11:57:09.375Z,1007.09
2016-11-07T11:58:19.831Z,1007.06
2016-11-07T11:59:31.662Z,1007.08
2016-11-07T12:00:44.136Z,1007.06
2016-11-07T12:01:55.357Z,1007.07
2016-11-07T12:03:07.172Z,1007.09
2016-11-07T12:04:19.727Z,1007.07
2016-11-07T12:05:31.781Z,1007.07
2016-11-07T12:06:44.020Z,1007.06
2016-11-07T12:07:55.415Z,1007.01
2016-11-07T12:09:06.336Z,1007.05
2016-11-07T12:10:18.220Z,1007.04
2016-11-07T12:11:29.473Z,1007.04
2016-11-07T12:12:40.068Z,1007.03
2016-11-07T12:13:51.417Z,1007.02
2016-11-07T12:15:04.037Z,1006.99
2016-11-07T12:16:15.329Z,1007.01
2016-11-07T12:17:26.276Z,1006.95
2016-11-07T12:18:38.640Z,1006.92
2016-11-07T12:19:50.828Z,1006.95
2016-11-07T12:21:02.282Z,1006.9
2016-11-07T12:22:14.950Z,1006.92
2016-11-07T12:23:26.177Z,1006.91
2016-11-07T12:24:38.320Z,1006.87
2016-11-07T12:25:50.573Z,1006.94
2016-11-07T12:27:00.473Z,1006.88
2016-11-07T12:28:11.994Z,1006.88
2016-11-07T12:29:22.502Z,1006.81
2016-11-07T12:30:34.033Z,1006.85
2016-11-07T12:31:44.810Z,1006.77
2016-11-07T12:32:56.531Z,1006.75
2016-11-07T12:34:07.157Z,1006.77
2016-11-07T12:35:19.176Z,1006.72
2016-11-07T12:36:31.013Z,1006.71
2016-11-07T12:37:43.834Z,1006.7
2016-11-07T12:38:54.607Z,1006.69
2016-11-07T12:40:06.427Z,1006.66
2016-11-07T12:41:18.437Z,1006.69
2016-11-07T12:42:30.571Z,1006.69
2016-11-07T12:43:41.889Z,1006.7
2016-11-07T12:44:53.990Z,1006.69
2016-11-07T12:46:05.332Z,1006.72
2016-11-07T12:47:16.219Z,1006.66
2016-11-07T12:48:27.180Z,1006.64
2016-11-07T12:49:38.765Z,1006.67
2016-11-07T12:50:51.938Z,1006.64
2016-11-07T12:52:02.798Z,1006.62
2016-11-07T12:53:15.237Z,1006.58
2016-11-07T12:54:27.455Z,1006.62
2016-11-07T12:55:39.685Z,1006.58
2016-11-07T12:56:52.027Z,1006.59
2016-11-07T12:58:03.938Z,1006.57
2016-11-07T12:59:16.523Z,1006.54
2016-11-07T13:00:27.813Z,1006.5
2016-11-07T13:01:40.304Z,1006.49
2016-11-07T13:02:51.705Z,1006.5
2016-11-07T13:04:02.234Z,1006.49
2016-11-07T13:05:13.828Z,1006.52
2016-11-07T13:06:23.790Z,1006.48
2016-11-07T13:07:35.574Z,1006.48
2016-11-07T13:08:47.001Z,1006.52
2016-11-07T13:09:57.692Z,1006.48
2016-11-07T13:11:08.883Z,1006.46
2016-11-07T13:12:22.037Z,1006.43
2016-11-07T13:13:33.401Z,1006.42
2016-11-07T13:14:46.634Z,1006.42
2016-11-07T13:15:57.390Z,1006.42
2016-11-07T13:17:08.276Z,1006.45
2016-11-07T13:18:19.353Z,1006.44
2016-11-07T13:19:30.897Z,1006.39
2016-11-07T13:20:42.563Z,1006.44
2016-11-07T13:21:52.568Z,1006.46
2016-11-07T13:23:03.695Z,1006.46
2016-11-07T13:24:15.089Z,1006.43
2016-11-07T13:25:26.372Z,1006.43
2016-11-07T13:26:38.244Z,1006.39
2016-11-07T13:27:50.073Z,1006.41
2016-11-07T13:29:01.077Z,1006.37
2016-11-07T13:30:14.295Z,1006.38
2016-11-07T13:31:26.238Z,1006.38
2016-11-07T13:32:37.733Z,1006.4
2016-11-07T13:33:48.874Z,1006.4
2016-11-07T13:35:00.653Z,1006.41
2016-11-07T13:36:11.748Z,1006.42
2016-11-07T13:37:21.766Z,1006.41
2016-11-07T13:38:33.420Z,1006.47
2016-11-07T13:39:45.703Z,1006.45
2016-11-07T13:40:58.880Z,1006.48
2016-11-07T13:42:10.889Z,1006.52
2016-11-07T13:43:22.978Z,1006.5
2016-11-07T13:44:34.857Z,1006.49
2016-11-07T13:45:46.889Z,1006.5
2016-11-07T13:46:58.745Z,1006.52
2016-11-07T13:48:10.402Z,1006.59
2016-11-07T13:49:21.754Z,1006.5
2016-11-07T13:50:32.325Z,1006.53
2016-11-07T13:51:44.030Z,1006.51
2016-11-07T13:52:55.848Z,1006.53
2016-11-07T13:54:07.874Z,1006.53
2016-11-07T13:55:20.617Z,1006.57
2016-11-07T13:56:32.540Z,1006.61
2016-11-07T13:57:43.495Z,1006.6
2016-11-07T13:58:54.864Z,1006.61
2016-11-07T14:00:06.109Z,1006.6
2016-11-07T14:01:18.184Z,1006.61
2016-11-07T14:02:29.124Z,1006.58
2016-11-07T14:03:42.235Z,1006.55
2016-11-07T14:04:53.839Z,1006.62
2016-11-07T14:06:04.026Z,1006.65
2016-11-07T14:07:15.042Z,1006.62
2016-11-07T14:08:26.946Z,1006.66
2016-11-07T14:09:38.185Z,1006.62
2016-11-07T14:10:49.224Z,1006.69
2016-11-07T14:11:59.918Z,1006.69
2016-11-07T14:13:12.516Z,1006.69
2016-11-07T14:14:23.704Z,1006.7
2016-11-07T14:15:35.639Z,1006.74
2016-11-07T14:16:48.305Z,1006.75
2016-11-07T14:18:00.896Z,1006.75
2016-11-07T14:19:13.687Z,1006.76
2016-11-07T14:20:25.203Z,1006.78
2016-11-07T14:21:37.355Z,1006.74
2016-11-07T14:22:47.918Z,1006.77
2016-11-07T14:23:59.197Z,1006.77
2016-11-07T14:25:10.552Z,1006.79
2016-11-07T14:26:22.391Z,1006.82
2016-11-07T14:27:32.997Z,1006.79
2016-11-07T14:28:45.072Z,1006.82
2016-11-07T14:29:58.111Z,1006.81
2016-11-07T14:31:09.791Z,1006.82
2016-11-07T14:32:21.860Z,1006.83